sensor_id;sensor_type;location;lat;lon;timestamp;temperature;humidity
7934;DHT22;4012;48.896;9.192;2022-08-01T00:00:13;23.40;99.90
7934;DHT22;4012;48.896;9.192;2022-08-01T00:02:39;23.40;99.90
7934;DHT22;4012;48.896;9.192;2022-08-01T00:05:07;23.40;99.90
7934;DHT22;4012;48.896;9.192;2022-08-01T00:07:33;23.30;99.90
7934;DHT22;4012;48.896;9.192;2022-08-01T00:09:59;23.30;99.90
7934;DHT22;4012;48.896;9.192;2022-08-01T00:12:24;23.30;99.90
7934;DHT22;4012;48.896;9.192;2022-08-01T00:14:50;23.20;99.90
7934;DHT22;4012;48.896;9.192;2022-08-01T00:17:15;23.20;99.90
7934;DHT22;4012;48.896;9.192;2022-08-01T00:19:41;23.10;99.90
7934;DHT22;4012;48.896;9.192;2022-08-01T00:22:08;23.10;99.90
7934;DHT22;4012;48.896;9.192;2022-08-01T00:24:33;23.00;99.90
7934;DHT22;4012;48.896;9.192;2022-08-01T00:26:59;23.00;99.90
7934;DHT22;4012;48.896;9.192;2022-08-01T00:29:25;23.00;99.90
7934;DHT22;4012;48.896;9.192;2022-08-01T00:31:51;23.00;99.90
7934;DHT22;4012;48.896;9.192;2022-08-01T00:34:16;22.90;99.90
7934;DHT22;4012;48.896;9.192;2022-08-01T00:36:42;22.90;99.90
7934;DHT22;4012;48.896;9.192;2022-08-01T00:39:07;22.90;99.90
7934;DHT22;4012;48.896;9.192;2022-08-01T00:41:33;22.80;99.90
7934;DHT22;4012;48.896;9.192;2022-08-01T00:44:03;22.80;99.90
7934;DHT22;4012;48.896;9.192;2022-08-01T00:46:29;22.80;99.90
7934;DHT22;4012;48.896;9.192;2022-08-01T00:48:54;22.80;99.90
7934;DHT22;4012;48.896;9.192;2022-08-01T00:51:20;22.90;99.90
7934;DHT22;4012;48.896;9.192;2022-08-01T00:53:46;22.90;99.90
7934;DHT22;4012;48.896;9.192;2022-08-01T00:56:12;22.90;99.90
7934;DHT22;4012;48.896;9.192;2022-08-01T00:58:38;22.80;99.90
7934;DHT22;4012;48.896;9.192;2022-08-01T01:01:04;22.80;99.90
7934;DHT22;4012;48.896;9.192;2022-08-01T01:03:29;22.70;99.90
7934;DHT22;4012;48.896;9.192;2022-08-01T01:06:05;22.70;99.90
7934;DHT22;4012;48.896;9.192;2022-08-01T01:08:41;22.70;99.90
7934;DHT22;4012;48.896;9.192;2022-08-01T01:11:21;22.70;99.90
7934;DHT22;4012;48.896;9.192;2022-08-01T01:13:53;22.70;99.90
7934;DHT22;4012;48.896;9.192;2022-08-01T01:16:22;22.70;99.90
7934;DHT22;4012;48.896;9.192;2022-08-01T01:18:51;22.60;99.90
7934;DHT22;4012;48.896;9.192;2022-08-01T01:24:21;22.60;99.90
7934;DHT22;4012;48.896;9.192;2022-08-01T01:27:10;22.50;99.90
7934;DHT22;4012;48.896;9.192;2022-08-01T01:29:41;22.50;99.90
7934;DHT22;4012;48.896;9.192;2022-08-01T01:32:18;22.40;99.90
7934;DHT22;4012;48.896;9.192;2022-08-01T01:34:45;22.30;99.90
7934;DHT22;4012;48.896;9.192;2022-08-01T01:37:18;22.30;99.90
7934;DHT22;4012;48.896;9.192;2022-08-01T01:39:49;22.30;99.90
7934;DHT22;4012;48.896;9.192;2022-08-01T01:42:17;22.30;99.90
7934;DHT22;4012;48.896;9.192;2022-08-01T01:44:44;22.30;99.90
7934;DHT22;4012;48.896;9.192;2022-08-01T01:47:12;22.30;99.90
7934;DHT22;4012;48.896;9.192;2022-08-01T01:49:40;22.30;99.90
7934;DHT22;4012;48.896;9.192;2022-08-01T01:52:07;22.20;99.90
7934;DHT22;4012;48.896;9.192;2022-08-01T01:54:37;22.20;99.90
7934;DHT22;4012;48.896;9.192;2022-08-01T01:57:06;22.20;99.90
7934;DHT22;4012;48.896;9.192;2022-08-01T01:59:34;22.20;99.90
7934;DHT22;4012;48.896;9.192;2022-08-01T02:02:03;22.20;99.90
7934;DHT22;4012;48.896;9.192;2022-08-01T02:04:30;22.20;99.90
7934;DHT22;4012;48.896;9.192;2022-08-01T02:06:58;22.20;99.90
7934;DHT22;4012;48.896;9.192;2022-08-01T02:09:26;22.20;99.90
7934;DHT22;4012;48.896;9.192;2022-08-01T02:11:53;22.20;99.90
7934;DHT22;4012;48.896;9.192;2022-08-01T02:14:20;22.10;99.90
7934;DHT22;4012;48.896;9.192;2022-08-01T02:16:48;22.10;99.90
7934;DHT22;4012;48.896;9.192;2022-08-01T02:19:16;22.10;99.90
7934;DHT22;4012;48.896;9.192;2022-08-01T02:24:20;22.00;99.90
7934;DHT22;4012;48.896;9.192;2022-08-01T02:26:49;22.00;99.90
7934;DHT22;4012;48.896;9.192;2022-08-01T02:29:21;22.00;99.90
7934;DHT22;4012;48.896;9.192;2022-08-01T02:31:48;22.00;99.90
7934;DHT22;4012;48.896;9.192;2022-08-01T02:34:19;21.90;99.90
7934;DHT22;4012;48.896;9.192;2022-08-01T02:36:46;21.90;99.90
7934;DHT22;4012;48.896;9.192;2022-08-01T02:39:16;21.80;99.90
7934;DHT22;4012;48.896;9.192;2022-08-01T02:41:48;21.80;99.90
7934;DHT22;4012;48.896;9.192;2022-08-01T02:44:26;21.80;99.90
7934;DHT22;4012;48.896;9.192;2022-08-01T02:46:59;21.70;99.90
7934;DHT22;4012;48.896;9.192;2022-08-01T02:49:31;21.60;99.90
7934;DHT22;4012;48.896;9.192;2022-08-01T02:52:01;21.60;99.90
7934;DHT22;4012;48.896;9.192;2022-08-01T02:54:29;21.60;99.90
7934;DHT22;4012;48.896;9.192;2022-08-01T02:56:56;21.60;99.90
7934;DHT22;4012;48.896;9.192;2022-08-01T02:59:24;21.60;99.90
7934;DHT22;4012;48.896;9.192;2022-08-01T03:01:53;21.60;99.90
7934;DHT22;4012;48.896;9.192;2022-08-01T03:04:21;21.60;99.90
7934;DHT22;4012;48.896;9.192;2022-08-01T03:06:48;21.60;99.90
7934;DHT22;4012;48.896;9.192;2022-08-01T03:09:14;21.50;99.90
7934;DHT22;4012;48.896;9.192;2022-08-01T03:11:41;21.50;99.90
7934;DHT22;4012;48.896;9.192;2022-08-01T03:14:09;21.50;99.90
7934;DHT22;4012;48.896;9.192;2022-08-01T03:16:38;21.40;99.90
7934;DHT22;4012;48.896;9.192;2022-08-01T03:19:04;21.50;99.90
7934;DHT22;4012;48.896;9.192;2022-08-01T03:21:32;21.40;99.90
7934;DHT22;4012;48.896;9.192;2022-08-01T03:24:00;21.40;99.90
7934;DHT22;4012;48.896;9.192;2022-08-01T03:26:28;21.40;99.90
7934;DHT22;4012;48.896;9.192;2022-08-01T03:28:57;21.40;99.90
7934;DHT22;4012;48.896;9.192;2022-08-01T03:31:25;21.30;99.90
7934;DHT22;4012;48.896;9.192;2022-08-01T03:33:51;21.30;99.90
7934;DHT22;4012;48.896;9.192;2022-08-01T03:36:23;21.20;99.90
7934;DHT22;4012;48.896;9.192;2022-08-01T03:38:52;21.20;99.90
7934;DHT22;4012;48.896;9.192;2022-08-01T03:41:21;21.10;99.90
7934;DHT22;4012;48.896;9.192;2022-08-01T03:44:00;21.10;99.90
7934;DHT22;4012;48.896;9.192;2022-08-01T03:46:32;21.00;99.90
7934;DHT22;4012;48.896;9.192;2022-08-01T03:49:06;21.00;99.90
7934;DHT22;4012;48.896;9.192;2022-08-01T03:51:33;21.00;99.90
7934;DHT22;4012;48.896;9.192;2022-08-01T03:54:00;21.00;99.90
7934;DHT22;4012;48.896;9.192;2022-08-01T03:56:27;20.90;99.90
7934;DHT22;4012;48.896;9.192;2022-08-01T03:58:58;20.90;99.90
7934;DHT22;4012;48.896;9.192;2022-08-01T04:01:25;20.90;99.90
7934;DHT22;4012;48.896;9.192;2022-08-01T04:03:51;20.90;99.90
7934;DHT22;4012;48.896;9.192;2022-08-01T04:06:17;20.90;99.90
7934;DHT22;4012;48.896;9.192;2022-08-01T04:08:42;20.90;99.90
7934;DHT22;4012;48.896;9.192;2022-08-01T04:11:09;20.90;99.90
7934;DHT22;4012;48.896;9.192;2022-08-01T04:13:35;20.90;99.90
7934;DHT22;4012;48.896;9.192;2022-08-01T04:16:01;20.90;99.90
7934;DHT22;4012;48.896;9.192;2022-08-01T04:18:26;20.90;99.90
7934;DHT22;4012;48.896;9.192;2022-08-01T04:20:52;20.90;99.90
7934;DHT22;4012;48.896;9.192;2022-08-01T04:23:22;21.00;99.90
7934;DHT22;4012;48.896;9.192;2022-08-01T04:25:50;21.00;99.90
7934;DHT22;4012;48.896;9.192;2022-08-01T04:28:17;21.10;99.90
7934;DHT22;4012;48.896;9.192;2022-08-01T04:30:46;21.10;99.90
7934;DHT22;4012;48.896;9.192;2022-08-01T04:33:14;21.20;99.90
7934;DHT22;4012;48.896;9.192;2022-08-01T04:35:44;21.20;99.90
7934;DHT22;4012;48.896;9.192;2022-08-01T04:38:17;21.30;99.90
7934;DHT22;4012;48.896;9.192;2022-08-01T04:40:45;21.30;99.90
7934;DHT22;4012;48.896;9.192;2022-08-01T04:43:14;21.40;99.90
7934;DHT22;4012;48.896;9.192;2022-08-01T04:45:40;21.50;99.90
7934;DHT22;4012;48.896;9.192;2022-08-01T04:48:09;21.60;99.90
7934;DHT22;4012;48.896;9.192;2022-08-01T04:50:36;21.70;99.90
7934;DHT22;4012;48.896;9.192;2022-08-01T04:53:02;21.70;99.90
7934;DHT22;4012;48.896;9.192;2022-08-01T04:55:28;21.80;99.90
7934;DHT22;4012;48.896;9.192;2022-08-01T04:57:54;22.00;99.90
7934;DHT22;4012;48.896;9.192;2022-08-01T05:00:20;22.10;99.90
7934;DHT22;4012;48.896;9.192;2022-08-01T05:02:46;22.00;99.90
7934;DHT22;4012;48.896;9.192;2022-08-01T05:05:12;22.00;99.90
7934;DHT22;4012;48.896;9.192;2022-08-01T05:07:38;22.00;99.90
7934;DHT22;4012;48.896;9.192;2022-08-01T05:10:04;22.00;99.90
7934;DHT22;4012;48.896;9.192;2022-08-01T05:12:30;22.10;99.90
7934;DHT22;4012;48.896;9.192;2022-08-01T05:14:57;22.10;99.90
7934;DHT22;4012;48.896;9.192;2022-08-01T05:17:23;22.10;99.90
7934;DHT22;4012;48.896;9.192;2022-08-01T05:19:48;22.20;99.90
7934;DHT22;4012;48.896;9.192;2022-08-01T05:22:14;22.00;99.90
7934;DHT22;4012;48.896;9.192;2022-08-01T05:24:40;22.00;99.90
7934;DHT22;4012;48.896;9.192;2022-08-01T05:27:06;22.00;99.90
7934;DHT22;4012;48.896;9.192;2022-08-01T05:29:33;22.10;99.90
7934;DHT22;4012;48.896;9.192;2022-08-01T05:31:59;22.20;99.90
7934;DHT22;4012;48.896;9.192;2022-08-01T05:34:25;22.20;99.90
7934;DHT22;4012;48.896;9.192;2022-08-01T05:36:51;22.20;99.90
7934;DHT22;4012;48.896;9.192;2022-08-01T05:39:17;22.40;99.90
7934;DHT22;4012;48.896;9.192;2022-08-01T05:41:42;22.60;99.90
7934;DHT22;4012;48.896;9.192;2022-08-01T05:44:08;22.70;99.90
7934;DHT22;4012;48.896;9.192;2022-08-01T05:46:34;22.80;99.90
7934;DHT22;4012;48.896;9.192;2022-08-01T05:49:02;23.00;99.90
7934;DHT22;4012;48.896;9.192;2022-08-01T05:51:28;23.20;99.90
7934;DHT22;4012;48.896;9.192;2022-08-01T05:53:54;23.20;99.90
7934;DHT22;4012;48.896;9.192;2022-08-01T05:56:21;23.40;99.90
7934;DHT22;4012;48.896;9.192;2022-08-01T05:58:47;23.40;99.90
7934;DHT22;4012;48.896;9.192;2022-08-01T06:01:13;23.40;99.90
7934;DHT22;4012;48.896;9.192;2022-08-01T06:03:38;23.40;99.90
7934;DHT22;4012;48.896;9.192;2022-08-01T06:06:04;23.30;99.90
7934;DHT22;4012;48.896;9.192;2022-08-01T06:08:30;23.20;99.90
7934;DHT22;4012;48.896;9.192;2022-08-01T06:10:57;23.10;99.90
7934;DHT22;4012;48.896;9.192;2022-08-01T06:13:22;23.10;99.90
7934;DHT22;4012;48.896;9.192;2022-08-01T06:15:49;23.00;99.90
7934;DHT22;4012;48.896;9.192;2022-08-01T06:18:15;22.90;99.90
7934;DHT22;4012;48.896;9.192;2022-08-01T06:20:41;23.00;99.90
7934;DHT22;4012;48.896;9.192;2022-08-01T06:23:07;23.00;99.90
7934;DHT22;4012;48.896;9.192;2022-08-01T06:25:33;23.90;99.90
7934;DHT22;4012;48.896;9.192;2022-08-01T06:27:59;24.70;99.90
7934;DHT22;4012;48.896;9.192;2022-08-01T06:30:26;24.80;99.90
7934;DHT22;4012;48.896;9.192;2022-08-01T06:32:52;24.80;99.90
7934;DHT22;4012;48.896;9.192;2022-08-01T06:35:21;25.00;99.90
7934;DHT22;4012;48.896;9.192;2022-08-01T06:37:46;26.30;99.90
7934;DHT22;4012;48.896;9.192;2022-08-01T06:40:12;27.30;99.90
7934;DHT22;4012;48.896;9.192;2022-08-01T06:42:38;28.30;99.90
7934;DHT22;4012;48.896;9.192;2022-08-01T06:45:05;29.00;99.90
7934;DHT22;4012;48.896;9.192;2022-08-01T06:47:31;29.50;99.90
7934;DHT22;4012;48.896;9.192;2022-08-01T06:49:57;29.90;99.90
7934;DHT22;4012;48.896;9.192;2022-08-01T06:52:22;30.10;99.90
7934;DHT22;4012;48.896;9.192;2022-08-01T06:54:48;29.80;99.90
7934;DHT22;4012;48.896;9.192;2022-08-01T06:57:14;31.20;99.90
7934;DHT22;4012;48.896;9.192;2022-08-01T06:59:39;31.50;99.90
7934;DHT22;4012;48.896;9.192;2022-08-01T07:02:05;32.30;99.90
7934;DHT22;4012;48.896;9.192;2022-08-01T07:04:31;32.60;99.90
7934;DHT22;4012;48.896;9.192;2022-08-01T07:06:57;32.30;99.90
7934;DHT22;4012;48.896;9.192;2022-08-01T07:09:23;33.00;99.90
7934;DHT22;4012;48.896;9.192;2022-08-01T07:11:49;33.00;99.90
7934;DHT22;4012;48.896;9.192;2022-08-01T07:14:16;31.60;99.90
7934;DHT22;4012;48.896;9.192;2022-08-01T07:16:41;31.40;99.90
7934;DHT22;4012;48.896;9.192;2022-08-01T07:19:07;33.20;99.90
7934;DHT22;4012;48.896;9.192;2022-08-01T07:21:33;31.50;99.90
7934;DHT22;4012;48.896;9.192;2022-08-01T07:23:59;30.50;99.90
7934;DHT22;4012;48.896;9.192;2022-08-01T07:26:25;30.40;99.90
7934;DHT22;4012;48.896;9.192;2022-08-01T07:28:51;30.80;99.90
7934;DHT22;4012;48.896;9.192;2022-08-01T07:31:18;30.00;99.90
7934;DHT22;4012;48.896;9.192;2022-08-01T07:33:44;29.90;99.90
7934;DHT22;4012;48.896;9.192;2022-08-01T07:36:09;31.70;99.90
7934;DHT22;4012;48.896;9.192;2022-08-01T07:38:35;31.10;99.90
7934;DHT22;4012;48.896;9.192;2022-08-01T07:41:01;31.20;99.90
7934;DHT22;4012;48.896;9.192;2022-08-01T07:43:27;31.80;99.90
7934;DHT22;4012;48.896;9.192;2022-08-01T07:45:53;30.90;99.90
7934;DHT22;4012;48.896;9.192;2022-08-01T07:48:19;30.20;99.90
7934;DHT22;4012;48.896;9.192;2022-08-01T07:50:52;28.90;99.90
7934;DHT22;4012;48.896;9.192;2022-08-01T07:53:17;28.00;99.90
7934;DHT22;4012;48.896;9.192;2022-08-01T07:55:43;27.20;99.90
7934;DHT22;4012;48.896;9.192;2022-08-01T07:58:09;27.50;99.90
7934;DHT22;4012;48.896;9.192;2022-08-01T08:00:34;27.30;99.90
7934;DHT22;4012;48.896;9.192;2022-08-01T08:03:00;27.60;99.90
7934;DHT22;4012;48.896;9.192;2022-08-01T08:05:26;27.40;99.90
7934;DHT22;4012;48.896;9.192;2022-08-01T08:07:52;26.90;99.90
7934;DHT22;4012;48.896;9.192;2022-08-01T08:10:18;26.60;99.90
7934;DHT22;4012;48.896;9.192;2022-08-01T08:12:44;27.50;99.90
7934;DHT22;4012;48.896;9.192;2022-08-01T08:15:12;28.60;99.90
7934;DHT22;4012;48.896;9.192;2022-08-01T08:17:38;29.60;99.90
7934;DHT22;4012;48.896;9.192;2022-08-01T08:20:06;32.20;99.90
7934;DHT22;4012;48.896;9.192;2022-08-01T08:22:32;32.40;99.90
7934;DHT22;4012;48.896;9.192;2022-08-01T08:24:58;32.90;99.90
7934;DHT22;4012;48.896;9.192;2022-08-01T08:27:23;30.80;99.90
7934;DHT22;4012;48.896;9.192;2022-08-01T08:29:49;30.00;99.90
7934;DHT22;4012;48.896;9.192;2022-08-01T08:32:15;28.80;99.90
7934;DHT22;4012;48.896;9.192;2022-08-01T08:34:41;28.50;99.90
7934;DHT22;4012;48.896;9.192;2022-08-01T08:37:06;28.70;99.90
7934;DHT22;4012;48.896;9.192;2022-08-01T08:39:32;28.40;99.90
7934;DHT22;4012;48.896;9.192;2022-08-01T08:42:04;29.50;99.90
7934;DHT22;4012;48.896;9.192;2022-08-01T08:44:31;30.50;99.90
7934;DHT22;4012;48.896;9.192;2022-08-01T08:46:58;32.40;99.90
7934;DHT22;4012;48.896;9.192;2022-08-01T08:49:27;33.50;99.90
7934;DHT22;4012;48.896;9.192;2022-08-01T08:51:59;32.40;99.90
7934;DHT22;4012;48.896;9.192;2022-08-01T08:54:26;31.50;99.90
7934;DHT22;4012;48.896;9.192;2022-08-01T08:56:53;30.80;99.90
7934;DHT22;4012;48.896;9.192;2022-08-01T08:59:20;29.40;99.90
7934;DHT22;4012;48.896;9.192;2022-08-01T09:01:47;28.70;99.90
7934;DHT22;4012;48.896;9.192;2022-08-01T09:04:16;29.00;99.90
7934;DHT22;4012;48.896;9.192;2022-08-01T09:06:42;28.40;99.90
7934;DHT22;4012;48.896;9.192;2022-08-01T09:09:08;28.10;99.90
7934;DHT22;4012;48.896;9.192;2022-08-01T09:11:35;27.40;99.90
7934;DHT22;4012;48.896;9.192;2022-08-01T09:14:18;27.60;99.90
7934;DHT22;4012;48.896;9.192;2022-08-01T09:17:05;27.20;99.90
7934;DHT22;4012;48.896;9.192;2022-08-01T09:19:39;27.30;99.90
7934;DHT22;4012;48.896;9.192;2022-08-01T09:22:13;27.70;99.90
7934;DHT22;4012;48.896;9.192;2022-08-01T09:24:40;27.70;99.90
7934;DHT22;4012;48.896;9.192;2022-08-01T09:27:21;28.20;99.90
7934;DHT22;4012;48.896;9.192;2022-08-01T09:29:51;27.90;99.90
7934;DHT22;4012;48.896;9.192;2022-08-01T09:32:17;29.50;99.90
7934;DHT22;4012;48.896;9.192;2022-08-01T09:34:43;30.30;99.90
7934;DHT22;4012;48.896;9.192;2022-08-01T09:37:09;30.70;99.90
7934;DHT22;4012;48.896;9.192;2022-08-01T09:39:36;30.90;99.90
7934;DHT22;4012;48.896;9.192;2022-08-01T09:42:19;31.10;99.90
7934;DHT22;4012;48.896;9.192;2022-08-01T09:44:46;31.20;99.90
7934;DHT22;4012;48.896;9.192;2022-08-01T09:47:12;32.70;99.90
7934;DHT22;4012;48.896;9.192;2022-08-01T09:49:40;32.70;99.90
7934;DHT22;4012;48.896;9.192;2022-08-01T09:52:19;31.60;99.90
7934;DHT22;4012;48.896;9.192;2022-08-01T09:55:05;30.60;99.90
7934;DHT22;4012;48.896;9.192;2022-08-01T09:57:31;30.80;99.90
7934;DHT22;4012;48.896;9.192;2022-08-01T09:59:59;32.30;99.90
7934;DHT22;4012;48.896;9.192;2022-08-01T10:02:36;32.00;99.90
7934;DHT22;4012;48.896;9.192;2022-08-01T10:05:07;30.50;99.90
7934;DHT22;4012;48.896;9.192;2022-08-01T10:07:33;30.90;99.90
7934;DHT22;4012;48.896;9.192;2022-08-01T10:10:13;30.70;99.90
7934;DHT22;4012;48.896;9.192;2022-08-01T10:12:41;31.50;99.90
7934;DHT22;4012;48.896;9.192;2022-08-01T10:15:08;31.50;99.90
7934;DHT22;4012;48.896;9.192;2022-08-01T10:17:34;32.60;99.90
7934;DHT22;4012;48.896;9.192;2022-08-01T10:20:03;33.90;99.90
7934;DHT22;4012;48.896;9.192;2022-08-01T10:22:31;33.80;99.90
7934;DHT22;4012;48.896;9.192;2022-08-01T10:24:57;33.40;99.90
7934;DHT22;4012;48.896;9.192;2022-08-01T10:27:26;33.90;99.90
7934;DHT22;4012;48.896;9.192;2022-08-01T10:29:58;32.00;99.90
7934;DHT22;4012;48.896;9.192;2022-08-01T10:32:33;32.80;99.90
7934;DHT22;4012;48.896;9.192;2022-08-01T10:35:00;33.00;99.90
7934;DHT22;4012;48.896;9.192;2022-08-01T10:37:26;33.20;99.90
7934;DHT22;4012;48.896;9.192;2022-08-01T10:39:53;32.50;99.90
7934;DHT22;4012;48.896;9.192;2022-08-01T10:42:19;33.10;99.90
7934;DHT22;4012;48.896;9.192;2022-08-01T10:44:45;32.10;99.90
7934;DHT22;4012;48.896;9.192;2022-08-01T10:47:37;31.60;99.90
7934;DHT22;4012;48.896;9.192;2022-08-01T10:50:16;30.80;99.90
7934;DHT22;4012;48.896;9.192;2022-08-01T10:55:51;30.30;99.90
7934;DHT22;4012;48.896;9.192;2022-08-01T10:58:24;31.20;99.90
7934;DHT22;4012;48.896;9.192;2022-08-01T11:03:38;30.80;99.90
7934;DHT22;4012;48.896;9.192;2022-08-01T11:06:03;30.40;99.90
7934;DHT22;4012;48.896;9.192;2022-08-01T11:08:30;30.00;99.90
7934;DHT22;4012;48.896;9.192;2022-08-01T11:11:03;29.70;99.90
7934;DHT22;4012;48.896;9.192;2022-08-01T11:16:30;29.80;99.90
7934;DHT22;4012;48.896;9.192;2022-08-01T11:18:56;29.70;99.90
7934;DHT22;4012;48.896;9.192;2022-08-01T11:21:22;30.00;99.90
7934;DHT22;4012;48.896;9.192;2022-08-01T11:24:07;29.70;99.90
7934;DHT22;4012;48.896;9.192;2022-08-01T11:26:33;29.60;99.90
7934;DHT22;4012;48.896;9.192;2022-08-01T11:29:14;29.20;99.90
7934;DHT22;4012;48.896;9.192;2022-08-01T11:31:40;29.20;99.90
7934;DHT22;4012;48.896;9.192;2022-08-01T11:34:06;29.90;99.90
7934;DHT22;4012;48.896;9.192;2022-08-01T11:36:32;30.00;99.90
7934;DHT22;4012;48.896;9.192;2022-08-01T11:41:25;29.50;99.90
7934;DHT22;4012;48.896;9.192;2022-08-01T11:46:49;29.50;99.90
7934;DHT22;4012;48.896;9.192;2022-08-01T11:54:39;29.70;99.90
7934;DHT22;4012;48.896;9.192;2022-08-01T11:57:29;29.80;99.90
7934;DHT22;4012;48.896;9.192;2022-08-01T11:59:58;29.60;99.90
7934;DHT22;4012;48.896;9.192;2022-08-01T12:02:25;29.80;99.90
7934;DHT22;4012;48.896;9.192;2022-08-01T12:07:25;30.30;99.90
7934;DHT22;4012;48.896;9.192;2022-08-01T12:12:26;29.20;99.90
7934;DHT22;4012;48.896;9.192;2022-08-01T12:14:55;29.30;99.90
7934;DHT22;4012;48.896;9.192;2022-08-01T12:17:40;29.60;99.90
7934;DHT22;4012;48.896;9.192;2022-08-01T12:20:08;29.90;99.90
7934;DHT22;4012;48.896;9.192;2022-08-01T12:22:35;29.90;99.90
7934;DHT22;4012;48.896;9.192;2022-08-01T12:25:15;29.70;99.90
7934;DHT22;4012;48.896;9.192;2022-08-01T12:27:43;29.50;99.90
7934;DHT22;4012;48.896;9.192;2022-08-01T12:30:11;29.60;99.90
7934;DHT22;4012;48.896;9.192;2022-08-01T12:32:38;30.20;99.90
7934;DHT22;4012;48.896;9.192;2022-08-01T12:35:05;30.20;99.90
7934;DHT22;4012;48.896;9.192;2022-08-01T12:37:39;29.80;99.90
7934;DHT22;4012;48.896;9.192;2022-08-01T12:40:16;29.50;99.90
7934;DHT22;4012;48.896;9.192;2022-08-01T12:42:44;29.90;99.90
7934;DHT22;4012;48.896;9.192;2022-08-01T12:45:13;29.50;99.90
7934;DHT22;4012;48.896;9.192;2022-08-01T12:47:39;29.60;99.90
7934;DHT22;4012;48.896;9.192;2022-08-01T12:50:07;30.20;99.90
7934;DHT22;4012;48.896;9.192;2022-08-01T12:52:33;30.30;99.90
7934;DHT22;4012;48.896;9.192;2022-08-01T12:57:32;29.00;99.90
7934;DHT22;4012;48.896;9.192;2022-08-01T13:02:37;29.40;99.90
7934;DHT22;4012;48.896;9.192;2022-08-01T13:05:05;29.70;99.90
7934;DHT22;4012;48.896;9.192;2022-08-01T13:07:39;29.60;99.90
7934;DHT22;4012;48.896;9.192;2022-08-01T13:10:05;29.20;99.90
7934;DHT22;4012;48.896;9.192;2022-08-01T13:12:31;29.40;99.90
7934;DHT22;4012;48.896;9.192;2022-08-01T13:14:57;29.40;99.90
7934;DHT22;4012;48.896;9.192;2022-08-01T13:17:35;29.20;99.90
7934;DHT22;4012;48.896;9.192;2022-08-01T13:20:03;29.10;99.90
7934;DHT22;4012;48.896;9.192;2022-08-01T13:22:36;29.10;99.90
7934;DHT22;4012;48.896;9.192;2022-08-01T13:25:15;29.40;99.90
7934;DHT22;4012;48.896;9.192;2022-08-01T13:27:42;29.50;99.90
7934;DHT22;4012;48.896;9.192;2022-08-01T13:30:18;29.70;99.90
7934;DHT22;4012;48.896;9.192;2022-08-01T13:33:00;29.80;99.90
7934;DHT22;4012;48.896;9.192;2022-08-01T13:35:26;29.70;99.90
7934;DHT22;4012;48.896;9.192;2022-08-01T13:37:52;29.50;99.90
7934;DHT22;4012;48.896;9.192;2022-08-01T13:40:27;29.50;99.90
7934;DHT22;4012;48.896;9.192;2022-08-01T13:42:55;29.20;99.90
7934;DHT22;4012;48.896;9.192;2022-08-01T13:45:22;29.30;99.90
7934;DHT22;4012;48.896;9.192;2022-08-01T13:47:48;29.20;99.90
7934;DHT22;4012;48.896;9.192;2022-08-01T13:50:14;29.40;99.90
7934;DHT22;4012;48.896;9.192;2022-08-01T13:52:40;29.60;99.90
7934;DHT22;4012;48.896;9.192;2022-08-01T13:55:06;29.60;99.90
7934;DHT22;4012;48.896;9.192;2022-08-01T13:57:32;29.80;99.90
7934;DHT22;4012;48.896;9.192;2022-08-01T13:59:57;29.90;99.90
7934;DHT22;4012;48.896;9.192;2022-08-01T14:02:28;30.20;99.90
7934;DHT22;4012;48.896;9.192;2022-08-01T14:04:54;30.60;99.90
7934;DHT22;4012;48.896;9.192;2022-08-01T14:07:21;30.50;99.90
7934;DHT22;4012;48.896;9.192;2022-08-01T14:09:46;30.40;99.90
7934;DHT22;4012;48.896;9.192;2022-08-01T14:12:12;30.20;99.90
7934;DHT22;4012;48.896;9.192;2022-08-01T14:14:38;29.90;99.90
7934;DHT22;4012;48.896;9.192;2022-08-01T14:17:04;30.10;99.90
7934;DHT22;4012;48.896;9.192;2022-08-01T14:19:29;30.40;99.90
7934;DHT22;4012;48.896;9.192;2022-08-01T14:21:56;29.90;99.90
7934;DHT22;4012;48.896;9.192;2022-08-01T14:24:22;29.90;99.90
7934;DHT22;4012;48.896;9.192;2022-08-01T14:26:48;30.30;99.90
7934;DHT22;4012;48.896;9.192;2022-08-01T14:29:14;30.30;99.90
7934;DHT22;4012;48.896;9.192;2022-08-01T14:31:40;30.20;99.90
7934;DHT22;4012;48.896;9.192;2022-08-01T14:34:05;29.80;99.90
7934;DHT22;4012;48.896;9.192;2022-08-01T14:36:31;30.00;99.90
7934;DHT22;4012;48.896;9.192;2022-08-01T14:38:59;29.80;99.90
7934;DHT22;4012;48.896;9.192;2022-08-01T14:41:24;30.00;99.90
7934;DHT22;4012;48.896;9.192;2022-08-01T14:43:50;30.50;99.90
7934;DHT22;4012;48.896;9.192;2022-08-01T14:46:16;30.60;99.90
7934;DHT22;4012;48.896;9.192;2022-08-01T14:48:41;30.50;99.90
7934;DHT22;4012;48.896;9.192;2022-08-01T14:51:07;30.00;99.90
7934;DHT22;4012;48.896;9.192;2022-08-01T14:53:33;30.00;99.90
7934;DHT22;4012;48.896;9.192;2022-08-01T14:56:00;30.20;99.90
7934;DHT22;4012;48.896;9.192;2022-08-01T14:58:26;29.90;99.90
7934;DHT22;4012;48.896;9.192;2022-08-01T15:00:51;29.80;99.90
7934;DHT22;4012;48.896;9.192;2022-08-01T15:03:20;30.00;99.90
7934;DHT22;4012;48.896;9.192;2022-08-01T15:05:46;29.70;99.90
7934;DHT22;4012;48.896;9.192;2022-08-01T15:08:11;29.80;99.90
7934;DHT22;4012;48.896;9.192;2022-08-01T15:10:37;29.90;99.90
7934;DHT22;4012;48.896;9.192;2022-08-01T15:13:03;29.60;99.90
7934;DHT22;4012;48.896;9.192;2022-08-01T15:15:29;29.50;99.90
7934;DHT22;4012;48.896;9.192;2022-08-01T15:17:56;29.30;99.90
7934;DHT22;4012;48.896;9.192;2022-08-01T15:20:22;29.50;99.90
7934;DHT22;4012;48.896;9.192;2022-08-01T15:22:48;29.50;99.90
7934;DHT22;4012;48.896;9.192;2022-08-01T15:25:13;29.50;99.90
7934;DHT22;4012;48.896;9.192;2022-08-01T15:27:39;29.30;99.90
7934;DHT22;4012;48.896;9.192;2022-08-01T15:30:05;29.20;99.90
7934;DHT22;4012;48.896;9.192;2022-08-01T15:32:31;29.00;99.90
7934;DHT22;4012;48.896;9.192;2022-08-01T15:34:57;28.80;99.90
7934;DHT22;4012;48.896;9.192;2022-08-01T15:37:22;28.90;99.90
7934;DHT22;4012;48.896;9.192;2022-08-01T15:39:48;29.00;99.90
7934;DHT22;4012;48.896;9.192;2022-08-01T15:42:15;28.90;99.90
7934;DHT22;4012;48.896;9.192;2022-08-01T15:44:42;28.80;99.90
7934;DHT22;4012;48.896;9.192;2022-08-01T15:47:09;28.80;99.90
7934;DHT22;4012;48.896;9.192;2022-08-01T15:49:36;28.90;99.90
7934;DHT22;4012;48.896;9.192;2022-08-01T15:52:08;29.10;99.90
7934;DHT22;4012;48.896;9.192;2022-08-01T15:54:35;29.10;99.90
7934;DHT22;4012;48.896;9.192;2022-08-01T15:57:00;28.90;99.90
7934;DHT22;4012;48.896;9.192;2022-08-01T15:59:26;28.90;99.90
7934;DHT22;4012;48.896;9.192;2022-08-01T16:01:52;28.90;99.90
7934;DHT22;4012;48.896;9.192;2022-08-01T16:04:18;28.80;99.90
7934;DHT22;4012;48.896;9.192;2022-08-01T16:06:45;28.90;99.90
7934;DHT22;4012;48.896;9.192;2022-08-01T16:09:11;28.90;99.90
7934;DHT22;4012;48.896;9.192;2022-08-01T16:11:37;28.70;99.90
7934;DHT22;4012;48.896;9.192;2022-08-01T16:14:03;28.70;99.90
7934;DHT22;4012;48.896;9.192;2022-08-01T16:16:29;28.60;99.90
7934;DHT22;4012;48.896;9.192;2022-08-01T16:18:55;28.70;99.90
7934;DHT22;4012;48.896;9.192;2022-08-01T16:21:21;28.50;99.90
7934;DHT22;4012;48.896;9.192;2022-08-01T16:23:48;28.50;99.90
7934;DHT22;4012;48.896;9.192;2022-08-01T16:26:14;28.70;99.90
7934;DHT22;4012;48.896;9.192;2022-08-01T16:28:39;28.80;99.90
7934;DHT22;4012;48.896;9.192;2022-08-01T16:31:05;28.80;99.90
7934;DHT22;4012;48.896;9.192;2022-08-01T16:33:32;28.90;99.90
7934;DHT22;4012;48.896;9.192;2022-08-01T16:35:59;28.70;99.90
7934;DHT22;4012;48.896;9.192;2022-08-01T16:38:25;28.60;99.90
7934;DHT22;4012;48.896;9.192;2022-08-01T16:40:50;28.40;99.90